Historique des mesures à Cassis (13260), France
Quotidien Résumé Janvier 12, 2019 Unités:  Métrique    US   Métrique/US
« Précédent (Jour)
Suivant (Jour) »
Quotidien Hebdomadaire Mensuel Annuel Période au choix
  Maximum: Minimum: Moyenne:
Température: TemperatureC °C 3.8 °C 7 °C
Point de rosée: DewpointC °C -6.1 °C -2.1 °C
Humidité: Humidity % 46 % 49 %
Vitesse du vent: 0 km/h 0 km/h 15.1 km/h
Rafales: 0 km/h - -
Vent:- - SW
Pression: PressurehPa hPa 1014.0 hPa -
Précipitations: 0.0 mm    
Historical Graphs
 
 
Mesures pour : Janvier 12, 2019
Heure Temperature Point de rosée Pression Vent Vitesse du vent Rafales Humidité Pluie (par heure) Conditions
TemperatureC °C DewpointC °C PressurehPa hPa Calm     Humidity % HourlyPrecipMM mm SoftwareType W/m2
00:10 4.9 °C -5.6 °C 1018.7 hPa NNW 4.2 km/h 9.8 km/h 47 % 0.0 mm open2300-1.11 W/m2
01:10 4.8 °C -5.9 °C 1018.6 hPa NW 15 km/h 15 km/h 46 % 0.0 mm open2300-1.11 W/m2
02:10 4.5 °C -5.9 °C 1018.8 hPa WNW 12.2 km/h 12.2 km/h 47 % 0.0 mm open2300-1.11 W/m2
03:10 4.5 °C -5.9 °C 1018.5 hPa West 19.2 km/h 19.2 km/h 47 % 0.0 mm open2300-1.11 W/m2
04:10 4.4 °C -6.0 °C 1018.3 hPa WNW 12.2 km/h 12.2 km/h 47 % 0.0 mm open2300-1.11 W/m2
05:10 4.3 °C -6.1 °C 1017.6 hPa Calm   7.6 km/h 47 % 0.0 mm open2300-1.11 W/m2
06:10 3.8 °C -5.7 °C 1017.1 hPa WNW 15.6 km/h 15.6 km/h 50 % 0.0 mm open2300-1.11 W/m2
07:10 3.8 °C -4.7 °C 1016.8 hPa NNE 6.9 km/h 10.3 km/h 54 % 0.0 mm open2300-1.11 W/m2
08:10 4.2 °C -3.6 °C 1016.8 hPa Calm   2.3 km/h 57 % 0.0 mm open2300-1.11 W/m2
09:10 5.6 °C -2.8 °C 1017.1 hPa ESE 4.2 km/h 8.9 km/h 55 % 0.0 mm open2300-1.11 W/m2
10:10 6.9 °C -2.3 °C 1017.4 hPa North 4.7 km/h 9.3 km/h 52 % 0.0 mm open2300-1.11 W/m2
11:10 8.1 °C -2.0 °C 1017.7 hPa NNW 12.2 km/h 37 km/h 49 % 0.0 mm open2300-1.11 W/m2
12:10 9.5 °C -1.0 °C 1017.2 hPa West 23 km/h 35.4 km/h 48 % 0.0 mm open2300-1.11 W/m2
13:10 10.4 °C -0.8 °C 1016.7 hPa NNW 4.7 km/h 26.7 km/h 46 % 0.0 mm open2300-1.11 W/m2
14:10 11.3 °C 0.7 °C 1016.2 hPa NNE 19.2 km/h 24.8 km/h 48 % 0.0 mm open2300-1.11 W/m2
15:10 11.8 °C 1.4 °C 1015.7 hPa West 26.2 km/h 26.2 km/h 49 % 0.0 mm open2300-1.11 W/m2
16:10 11.9 °C 1.8 °C 1015.5 hPa NNW 8.9 km/h 16.3 km/h 50 % 0.0 mm open2300-1.11 W/m2
17:10 10.5 °C 1.3 °C 1015.2 hPa WNW 56.2 km/h 56.2 km/h 53 % 0.0 mm open2300-1.11 W/m2
18:10 9.2 °C 0.8 °C 1015.4 hPa North 25.4 km/h 25.4 km/h 56 % 0.0 mm open2300-1.11 W/m2
19:10 8.5 °C 0.4 °C 1015.3 hPa NW 26.2 km/h 26.2 km/h 57 % 0.0 mm open2300-1.11 W/m2
20:10 7.9 °C -0.1 °C 1015.2 hPa WNW 9.3 km/h 33.2 km/h 57 % 0.0 mm open2300-1.11 W/m2
21:10 7.8 °C -0.2 °C 1015.0 hPa WNW 19.2 km/h 31.4 km/h 57 % 0.0 mm open2300-1.11 W/m2
22:10 7.8 °C -0.5 °C 1014.1 hPa North 22 km/h 54.9 km/h 56 % 0.0 mm open2300-1.11 W/m2
23:10 8.3 °C -0.3 °C 1014.0 hPa NW 32.3 km/h 50.5 km/h 55 % 0.0 mm open2300-1.11 W/m2
Observations météo à CASSIS
WU-History script by Weather Underground - 1 mb